地図

経路データ

SID SEASON NUMBER BASIN SUBBASIN NAME ISO_TIME NATURE LAT LON WMO_WIND WMO_PRES WMO_AGENCY TRACK_TYPE DIST2LAND LANDFALL IFLAG USA_AGENCY USA_ATCF_ID USA_LAT USA_LON USA_RECORD USA_STATUS USA_WIND USA_PRES USA_SSHS USA_R34_NE USA_R34_SE USA_R34_SW USA_R34_NW USA_R50_NE USA_R50_SE USA_R50_SW USA_R50_NW USA_R64_NE USA_R64_SE USA_R64_SW USA_R64_NW USA_POCI USA_ROCI USA_RMW USA_EYE TOKYO_LAT TOKYO_LON TOKYO_GRADE TOKYO_WIND TOKYO_PRES TOKYO_R50_DIR TOKYO_R50_LONG TOKYO_R50_SHORT TOKYO_R30_DIR TOKYO_R30_LONG TOKYO_R30_SHORT TOKYO_LAND CMA_LAT CMA_LON CMA_CAT CMA_WIND CMA_PRES HKO_LAT HKO_LON HKO_CAT HKO_WIND HKO_PRES NEWDELHI_LAT NEWDELHI_LON NEWDELHI_GRADE NEWDELHI_WIND NEWDELHI_PRES NEWDELHI_CI NEWDELHI_DP NEWDELHI_POCI REUNION_LAT REUNION_LON REUNION_TYPE REUNION_WIND REUNION_PRES REUNION_TNUM REUNION_CI REUNION_RMW REUNION_R34_NE REUNION_R34_SE REUNION_R34_SW REUNION_R34_NW REUNION_R50_NE REUNION_R50_SE REUNION_R50_SW REUNION_R50_NW REUNION_R64_NE REUNION_R64_SE REUNION_R64_SW REUNION_R64_NW BOM_LAT BOM_LON BOM_TYPE BOM_WIND BOM_PRES BOM_TNUM BOM_CI BOM_RMW BOM_R34_NE BOM_R34_SE BOM_R34_SW BOM_R34_NW BOM_R50_NE BOM_R50_SE BOM_R50_SW BOM_R50_NW BOM_R64_NE BOM_R64_SE BOM_R64_SW BOM_R64_NW BOM_ROCI BOM_POCI BOM_EYE BOM_POS_METHOD BOM_PRES_METHOD NADI_LAT NADI_LON NADI_CAT NADI_WIND NADI_PRES WELLINGTON_LAT WELLINGTON_LON WELLINGTON_WIND WELLINGTON_PRES DS824_LAT DS824_LON DS824_STAGE DS824_WIND DS824_PRES TD9636_LAT TD9636_LON TD9636_STAGE TD9636_WIND TD9636_PRES TD9635_LAT TD9635_LON TD9635_WIND TD9635_PRES TD9635_ROCI NEUMANN_LAT NEUMANN_LON NEUMANN_CLASS NEUMANN_WIND NEUMANN_PRES MLC_LAT MLC_LON MLC_CLASS MLC_WIND MLC_PRES USA_GUST BOM_GUST BOM_GUST_PER REUNION_GUST REUNION_GUST_PER USA_SEAHGT USA_SEARAD_NE USA_SEARAD_SE USA_SEARAD_SW USA_SEARAD_NW STORM_SPEED STORM_DIR
2002198N09182 2002 38 EP CP KALMAEGI 2002-07-17 06:00:00 TS 9.10000 181.700 main 2447 2402 O_____________ jtwc_wp WP152002 9.10000 -178.300 TD 25 1002 -1 9 34
2002198N09182 2002 38 EP CP KALMAEGI 2002-07-17 09:00:00 TS 9.48996 181.965 main 2394 2333 P_____________ WP152002 9.48996 -178.035 TD 25 1002 -1 11 33
2002198N09182 2002 38 EP CP KALMAEGI 2002-07-17 12:00:00 TS 10.0000 182.300 main 2333 2251 O_____________ jtwc_wp WP152002 10.0000 -177.700 TD 25 1002 -1 14 32
2002198N09182 2002 38 EP CP KALMAEGI 2002-07-17 15:00:00 TS 10.6926 182.730 main 2251 2170 P_____________ WP152002 10.6926 -177.270 TD 25 1002 -1 16 29
2002198N09182 2002 38 EP CP KALMAEGI 2002-07-17 18:00:00 TS 11.4000 183.100 main 2170 2120 O_____________ jtwc_wp WP152002 11.4000 -176.900 TD 25 1002 -1 14 22
2002198N09182 2002 38 EP CP KALMAEGI 2002-07-17 21:00:00 TS 11.9674 183.268 main 2114 2089 P_____________ WP152002 11.9674 -176.732 TD 25 1002 -1 10 11
2002198N09182 2002 38 EP CP KALMAEGI 2002-07-18 00:00:00 TS 12.4000 183.300 main 2089 2071 O_____________ jtwc_wp WP152002 12.4000 -176.700 TD 25 1002 -1 7 0
2002198N09182 2002 38 EP CP KALMAEGI 2002-07-18 03:00:00 TS 12.6950 183.280 main 2071 2065 P_____________ WP152002 12.6950 -176.720 TD 22 1005 -1 5 349
2002198N09182 2002 38 EP CP KALMAEGI 2002-07-18 06:00:00 TS 12.9000 183.200 main 2068 2062 O_____________ jtwc_wp WP152002 12.9000 -176.800 TD 20 1009 -1 4 337
2002198N09182 2002 38 EP CP KALMAEGI 2002-07-18 09:00:00 TS 13.0850 183.115 main 2066 2060 P_____________ WP152002 13.0850 -176.885 TD 20 1009 -1 4 334
2002198N09182 2002 38 EP CP KALMAEGI 2002-07-18 12:00:00 TS 13.3000 183.000 main 2063 2056 O_____________ jtwc_wp WP152002 13.3000 -177.000 TD 20 1009 -1 6 335
2002198N09182 2002 38 EP CP KALMAEGI 2002-07-18 15:00:00 TS 13.6275 182.850 main 2056 2049 P_____________ WP152002 13.6275 -177.150 TD 20 1006 -1 8 337
2002198N09182 2002 38 EP CP KALMAEGI 2002-07-18 18:00:00 TS 14.0000 182.700 main 2053 2042 O_____________ jtwc_wp WP152002 14.0000 -177.300 TD 20 1004 -1 8 342
2002198N09182 2002 38 EP CP KALMAEGI 2002-07-18 21:00:00 TS 14.3725 182.600 main 2042 2036 P_____________ WP152002 14.3725 -177.400 TD 20 1004 -1 7 345
2002198N09182 2002 38 EP CP KALMAEGI 2002-07-19 00:00:00 TS 14.7000 182.500 main 2036 2031 O_____________ jtwc_wp WP152002 14.7000 -177.500 TD 20 1004 -1 6 338
2002198N09182 2002 38 EP CP KALMAEGI 2002-07-19 03:00:00 TS 14.9375 182.365 main 2036 2036 P_____________ WP152002 14.9375 -177.635 TD 20 1004 -1 5 324
2002198N09182 2002 38 EP CP KALMAEGI 2002-07-19 06:00:00 TS 15.1000 182.200 main 2046 2046 O_____________ jtwc_wp WP152002 15.1000 -177.800 TD 20 1004 -1 5 310
2002198N09182 2002 38 EP CP KALMAEGI 2002-07-19 09:00:00 TS 15.2300 182.007 main 2061 2056 P_____________ WP152002 15.2300 -177.993 TD 22 1003 -1 4 297
2002198N09182 2002 38 EP CP KALMAEGI 2002-07-19 12:00:00 TS 15.3000 181.800 main 2076 2076 O_____________ jtwc_wp WP152002 15.3000 -178.200 TD 25 1002 -1 4 280
2002198N09182 2002 38 EP CP KALMAEGI 2002-07-19 15:00:00 TS 15.3000 181.607 main 2095 2095 P_____________ WP152002 15.3000 -178.393 TD 25 1002 -1 4 270
2002198N09182 2002 38 EP CP KALMAEGI 2002-07-19 18:00:00 TS 15.3000 181.400 main 2115 2115 O_____________ jtwc_wp WP152002 15.3000 -178.600 TD 25 1002 -1 4 279
2002198N09182 2002 38 EP CP KALMAEGI 2002-07-19 21:00:00 TS 15.3624 181.180 main 2130 2130 P_____________ WP152002 15.3624 -178.820 TD 25 1002 -1 5 293
2002198N09182 2002 38 EP CP KALMAEGI 2002-07-20 00:00:00 TS 15.5000 180.900 main 2156 2156 O_____________ jtwc_wp WP152002 15.5000 -179.100 TD 25 1002 -1 7 300
2002198N09182 2002 38 EP CP KALMAEGI 2002-07-20 03:00:00 TS 15.7276 180.515 main 2187 2183 P_____________ WP152002 15.7276 -179.485 TD 25 1002 -1 9 308
2002198N09182 2002 38 EP CP KALMAEGI 2002-07-20 06:00:00 TS 16.0333 180.200 main 2204 2204 OOO___________ jtwc_wp WP152002 16.0000 -179.900 TD 25 1002 -1 16.1000 180.400 7 1004 0 0 0 16.1000 180.400 1 29 1004 7 297
2002198N09182 2002 38 WP MM KALMAEGI 2002-07-20 09:00:00 TS 16.0563 179.846 main 2241 2241 PPP___________ WP152002 16.2499 179.735 TD 25 1002 -1 15.8626 179.957 7 1003 0 0 15.8626 179.957 1 31 1002 7 274
2002198N09182 2002 38 WP MM KALMAEGI 2002-07-20 12:00:00 TS 16.0800 179.460 35 1002 tokyo main 2271 2271 OOO___________ jtwc_wp WP152002 16.5000 179.400 TD 25 1002 -1 15.8000 179.500 3 35 1002 0 8 140 20 0 15.8000 179.500 2 34 1000 8 286
2002198N09182 2002 38 WP MM KALMAEGI 2002-07-20 15:00:00 TS 16.2725 179.047 main 2313 2310 PPP___________ WP152002 16.7425 179.085 TD 27 1001 -1 16.0375 179.028 3 35 1002 0 8 140 20 16.0375 179.028 2 34 1000 10 309
2002198N09182 2002 38 WP MM KALMAEGI 2002-07-20 18:00:00 TS 16.7077 178.638 35 1002 tokyo main 2339 2336 OOOO__________ jtwc_wp WP152002 17.0000 178.800 TD 30 1000 -1 130 130 100 100 1009 100 40 16.5000 178.600 3 35 1002 0 8 140 20 0 16.5000 178.600 2 34 1000 17.2000 178.300 TD 30 1000 11 323
2002198N09182 2002 38 WP MM KALMAEGI 2002-07-20 21:00:00 TS 17.1670 178.350 main 2353 2350 PPPP__________ WP152002 17.3000 178.535 TD 30 1000 -1 1009 100 40 17.0547 178.307 3 35 1002 0 8 140 20 17.0547 178.307 2 34 1000 17.3501 178.150 TD 30 1000 11 330
2002198N09182 2002 38 WP MM KALMAEGI 2002-07-21 00:00:00 TS 17.6250 178.075 35 1002 tokyo main 2361 2358 OOOO__________ jtwc_wp WP152002 17.6000 178.300 TD 30 1000 -1 1009 100 40 17.7000 178.000 3 35 1002 0 1 140 20 0 17.7000 178.000 2 34 1000 17.5000 178.000 TD 30 1000 11 327
2002198N09182 2002 38 WP MM KALMAEGI 2002-07-21 03:00:00 TS 18.0672 177.748 main 2387 2385 PPPP__________ WP152002 17.8625 178.093 TD 27 1001 -1 18.3530 177.549 3 1005 0 1 18.3530 177.549 2 31 1002 17.7001 177.800 TD 30 1000 11 323
2002198N09182 2002 38 WP MM KALMAEGI 2002-07-21 06:00:00 TS 18.5000 177.375 1008 tokyo main 2407 OOOO__________ jtwc_wp WP152002 18.1000 177.900 TD 25 1002 -1 19.0000 177.000 2 1008 0 0 0 19.0000 177.000 1 29 1005 17.9000 177.600 TD 30 1000 11 321

IBTrACS Databaseについて

本データベースは、米国NOAAが公開する1842年以降の世界の熱帯低気圧のベストトラックデータアーカイブInternational Best Track Archive for Climate Stewardship (IBTrACS)を、ウェブで閲覧しやすい形式に変換したものです。

最終更新日:2021-10-19